sensor_id;sensor_type;location;lat;lon;timestamp;P1;P2;P0
34240;PMS7003;20503;50.200;19.508;2023-12-28T00:00:45;18;12;9
34240;PMS7003;20503;50.200;19.508;2023-12-28T00:01:53;18;14;8
34240;PMS7003;20503;50.200;19.508;2023-12-28T00:02:54;16;9;7
34240;PMS7003;20503;50.200;19.508;2023-12-28T00:03:55;15;12;8
34240;PMS7003;20503;50.200;19.508;2023-12-28T00:04:59;15;12;8
34240;PMS7003;20503;50.200;19.508;2023-12-28T00:06:01;16;12;8
34240;PMS7003;20503;50.200;19.508;2023-12-28T00:07:02;16;12;8
34240;PMS7003;20503;50.200;19.508;2023-12-28T00:08:05;21;13;9
34240;PMS7003;20503;50.200;19.508;2023-12-28T00:09:07;21;13;9
34240;PMS7003;20503;50.200;19.508;2023-12-28T00:10:10;18;12;10
34240;PMS7003;20503;50.200;19.508;2023-12-28T00:11:11;18;12;10
34240;PMS7003;20503;50.200;19.508;2023-12-28T00:12:15;18;12;9
34240;PMS7003;20503;50.200;19.508;2023-12-28T00:13:16;16;12;9
34240;PMS7003;20503;50.200;19.508;2023-12-28T00:14:17;15;9;7
34240;PMS7003;20503;50.200;19.508;2023-12-28T00:15:19;15;9;7
34240;PMS7003;20503;50.200;19.508;2023-12-28T00:16:20;17;12;9
34240;PMS7003;20503;50.200;19.508;2023-12-28T00:17:21;20;13;9
34240;PMS7003;20503;50.200;19.508;2023-12-28T00:18:22;20;13;9
34240;PMS7003;20503;50.200;19.508;2023-12-28T00:19:23;16;11;7
34240;PMS7003;20503;50.200;19.508;2023-12-28T00:20:30;16;11;7
34240;PMS7003;20503;50.200;19.508;2023-12-28T00:21:34;16;11;8
34240;PMS7003;20503;50.200;19.508;2023-12-28T00:22:35;16;11;8
34240;PMS7003;20503;50.200;19.508;2023-12-28T00:23:37;18;13;10
34240;PMS7003;20503;50.200;19.508;2023-12-28T00:24:39;16;13;8
34240;PMS7003;20503;50.200;19.508;2023-12-28T00:25:40;16;13;8
34240;PMS7003;20503;50.200;19.508;2023-12-28T00:27:02;18;12;10
34240;PMS7003;20503;50.200;19.508;2023-12-28T00:28:03;18;12;10
34240;PMS7003;20503;50.200;19.508;2023-12-28T00:29:05;18;12;8
34240;PMS7003;20503;50.200;19.508;2023-12-28T00:30:10;19;12;9
34240;PMS7003;20503;50.200;19.508;2023-12-28T00:31:11;17;11;7
34240;PMS7003;20503;50.200;19.508;2023-12-28T00:32:13;18;12;7
34240;PMS7003;20503;50.200;19.508;2023-12-28T00:33:17;21;18;10
34240;PMS7003;20503;50.200;19.508;2023-12-28T00:34:20;18;14;9
34240;PMS7003;20503;50.200;19.508;2023-12-28T00:35:22;13;11;8
34240;PMS7003;20503;50.200;19.508;2023-12-28T00:36:23;17;11;8
34240;PMS7003;20503;50.200;19.508;2023-12-28T00:37:24;17;11;8
34240;PMS7003;20503;50.200;19.508;2023-12-28T00:38:25;16;11;7
34240;PMS7003;20503;50.200;19.508;2023-12-28T00:39:37;15;11;8
34240;PMS7003;20503;50.200;19.508;2023-12-28T00:40:43;17;10;7
34240;PMS7003;20503;50.200;19.508;2023-12-28T00:41:45;17;10;7
34240;PMS7003;20503;50.200;19.508;2023-12-28T00:42:46;14;9;6
34240;PMS7003;20503;50.200;19.508;2023-12-28T00:43:47;14;9;7
34240;PMS7003;20503;50.200;19.508;2023-12-28T00:44:48;14;9;7
34240;PMS7003;20503;50.200;19.508;2023-12-28T00:45:49;12;9;6
34240;PMS7003;20503;50.200;19.508;2023-12-28T00:46:50;13;9;7
34240;PMS7003;20503;50.200;19.508;2023-12-28T00:47:52;19;11;6
34240;PMS7003;20503;50.200;19.508;2023-12-28T00:48:57;19;11;6
34240;PMS7003;20503;50.200;19.508;2023-12-28T00:49:58;10;9;5
34240;PMS7003;20503;50.200;19.508;2023-12-28T00:50:59;10;9;5
34240;PMS7003;20503;50.200;19.508;2023-12-28T00:52:00;13;6;5
34240;PMS7003;20503;50.200;19.508;2023-12-28T00:53:01;13;6;5
34240;PMS7003;20503;50.200;19.508;2023-12-28T00:54:05;14;8;6
34240;PMS7003;20503;50.200;19.508;2023-12-28T00:55:07;14;8;6
34240;PMS7003;20503;50.200;19.508;2023-12-28T00:56:09;10;8;6
34240;PMS7003;20503;50.200;19.508;2023-12-28T00:57:11;9;7;5
34240;PMS7003;20503;50.200;19.508;2023-12-28T00:58:12;9;7;5
34240;PMS7003;20503;50.200;19.508;2023-12-28T00:59:13;10;7;5
34240;PMS7003;20503;50.200;19.508;2023-12-28T01:00:14;10;7;5
34240;PMS7003;20503;50.200;19.508;2023-12-28T01:01:16;10;6;5
34240;PMS7003;20503;50.200;19.508;2023-12-28T01:02:17;12;6;4
34240;PMS7003;20503;50.200;19.508;2023-12-28T01:03:18;12;6;4
34240;PMS7003;20503;50.200;19.508;2023-12-28T01:04:20;10;7;5
34240;PMS7003;20503;50.200;19.508;2023-12-28T01:05:24;10;7;5
34240;PMS7003;20503;50.200;19.508;2023-12-28T01:06:28;10;6;5
34240;PMS7003;20503;50.200;19.508;2023-12-28T01:07:30;9;7;5
34240;PMS7003;20503;50.200;19.508;2023-12-28T01:08:31;9;7;5
34240;PMS7003;20503;50.200;19.508;2023-12-28T01:09:34;11;6;5
34240;PMS7003;20503;50.200;19.508;2023-12-28T01:10:54;12;7;5
34240;PMS7003;20503;50.200;19.508;2023-12-28T01:11:55;15;7;5
34240;PMS7003;20503;50.200;19.508;2023-12-28T01:12:56;15;7;5
34240;PMS7003;20503;50.200;19.508;2023-12-28T01:13:57;9;7;5
34240;PMS7003;20503;50.200;19.508;2023-12-28T01:15:02;12;6;5
34240;PMS7003;20503;50.200;19.508;2023-12-28T01:16:26;12;8;5
34240;PMS7003;20503;50.200;19.508;2023-12-28T01:17:27;11;7;5
34240;PMS7003;20503;50.200;19.508;2023-12-28T01:18:29;13;7;6
34240;PMS7003;20503;50.200;19.508;2023-12-28T01:19:30;12;8;6
34240;PMS7003;20503;50.200;19.508;2023-12-28T01:20:31;12;8;6
34240;PMS7003;20503;50.200;19.508;2023-12-28T01:21:32;13;8;5
34240;PMS7003;20503;50.200;19.508;2023-12-28T01:22:36;11;9;6
34240;PMS7003;20503;50.200;19.508;2023-12-28T01:23:37;11;8;6
34240;PMS7003;20503;50.200;19.508;2023-12-28T01:24:38;11;8;6
34240;PMS7003;20503;50.200;19.508;2023-12-28T01:25:39;14;8;6
34240;PMS7003;20503;50.200;19.508;2023-12-28T01:26:43;13;10;6
34240;PMS7003;20503;50.200;19.508;2023-12-28T01:27:51;13;11;7
34240;PMS7003;20503;50.200;19.508;2023-12-28T01:28:53;13;11;7
34240;PMS7003;20503;50.200;19.508;2023-12-28T01:29:54;10;8;6
34240;PMS7003;20503;50.200;19.508;2023-12-28T01:30:55;12;10;6
34240;PMS7003;20503;50.200;19.508;2023-12-28T01:31:57;12;10;6
34240;PMS7003;20503;50.200;19.508;2023-12-28T01:33:20;14;10;7
34240;PMS7003;20503;50.200;19.508;2023-12-28T01:34:21;14;10;7
34240;PMS7003;20503;50.200;19.508;2023-12-28T01:35:22;15;10;6
34240;PMS7003;20503;50.200;19.508;2023-12-28T01:36:24;12;8;6
34240;PMS7003;20503;50.200;19.508;2023-12-28T01:37:27;12;8;6
34240;PMS7003;20503;50.200;19.508;2023-12-28T01:38:33;12;8;6
34240;PMS7003;20503;50.200;19.508;2023-12-28T01:39:35;12;8;6
34240;PMS7003;20503;50.200;19.508;2023-12-28T01:40:36;12;9;6
34240;PMS7003;20503;50.200;19.508;2023-12-28T01:41:37;13;8;6
34240;PMS7003;20503;50.200;19.508;2023-12-28T01:42:57;12;9;6
34240;PMS7003;20503;50.200;19.508;2023-12-28T01:43:58;15;10;7
34240;PMS7003;20503;50.200;19.508;2023-12-28T01:44:59;15;10;7
34240;PMS7003;20503;50.200;19.508;2023-12-28T01:46:01;15;10;7
34240;PMS7003;20503;50.200;19.508;2023-12-28T01:47:03;15;10;7
34240;PMS7003;20503;50.200;19.508;2023-12-28T01:48:06;15;10;7
34240;PMS7003;20503;50.200;19.508;2023-12-28T01:49:08;13;9;6
34240;PMS7003;20503;50.200;19.508;2023-12-28T01:50:09;13;9;6
34240;PMS7003;20503;50.200;19.508;2023-12-28T01:51:29;16;10;7
34240;PMS7003;20503;50.200;19.508;2023-12-28T01:52:31;13;9;7
34240;PMS7003;20503;50.200;19.508;2023-12-28T01:53:48;14;10;6
34240;PMS7003;20503;50.200;19.508;2023-12-28T01:54:51;18;10;7
34240;PMS7003;20503;50.200;19.508;2023-12-28T01:55:53;18;10;7
34240;PMS7003;20503;50.200;19.508;2023-12-28T01:56:54;13;9;7
34240;PMS7003;20503;50.200;19.508;2023-12-28T01:57:56;14;9;7
34240;PMS7003;20503;50.200;19.508;2023-12-28T01:58:58;14;9;7
34240;PMS7003;20503;50.200;19.508;2023-12-28T02:00:00;14;9;7
34240;PMS7003;20503;50.200;19.508;2023-12-28T02:01:04;14;9;7
34240;PMS7003;20503;50.200;19.508;2023-12-28T02:02:06;13;9;6
34240;PMS7003;20503;50.200;19.508;2023-12-28T02:03:07;13;9;6
34240;PMS7003;20503;50.200;19.508;2023-12-28T02:04:08;12;9;6
34240;PMS7003;20503;50.200;19.508;2023-12-28T02:05:13;14;10;7
34240;PMS7003;20503;50.200;19.508;2023-12-28T02:06:15;14;10;7
34240;PMS7003;20503;50.200;19.508;2023-12-28T02:07:17;13;13;7
34240;PMS7003;20503;50.200;19.508;2023-12-28T02:08:21;13;13;7
34240;PMS7003;20503;50.200;19.508;2023-12-28T02:09:22;14;9;6
34240;PMS7003;20503;50.200;19.508;2023-12-28T02:10:23;14;9;6
34240;PMS7003;20503;50.200;19.508;2023-12-28T02:11:25;13;9;6
34240;PMS7003;20503;50.200;19.508;2023-12-28T02:12:26;11;9;6
34240;PMS7003;20503;50.200;19.508;2023-12-28T02:13:27;11;9;6
34240;PMS7003;20503;50.200;19.508;2023-12-28T02:14:28;15;9;7
34240;PMS7003;20503;50.200;19.508;2023-12-28T02:15:30;15;9;7
34240;PMS7003;20503;50.200;19.508;2023-12-28T02:16:38;14;10;7
34240;PMS7003;20503;50.200;19.508;2023-12-28T02:18:56;15;10;7
34240;PMS7003;20503;50.200;19.508;2023-12-28T02:20:01;14;9;5
34240;PMS7003;20503;50.200;19.508;2023-12-28T02:21:07;14;9;5
34240;PMS7003;20503;50.200;19.508;2023-12-28T02:22:09;13;8;6
34240;PMS7003;20503;50.200;19.508;2023-12-28T02:23:15;13;9;7
34240;PMS7003;20503;50.200;19.508;2023-12-28T02:24:16;13;9;7
34240;PMS7003;20503;50.200;19.508;2023-12-28T02:25:17;13;10;7
34240;PMS7003;20503;50.200;19.508;2023-12-28T02:26:18;13;10;7
34240;PMS7003;20503;50.200;19.508;2023-12-28T02:27:20;13;9;7
34240;PMS7003;20503;50.200;19.508;2023-12-28T02:28:21;16;10;8
34240;PMS7003;20503;50.200;19.508;2023-12-28T02:29:22;16;10;8
34240;PMS7003;20503;50.200;19.508;2023-12-28T02:30:23;13;9;7
34240;PMS7003;20503;50.200;19.508;2023-12-28T02:31:58;16;11;7
34240;PMS7003;20503;50.200;19.508;2023-12-28T02:34:27;14;10;7
34240;PMS7003;20503;50.200;19.508;2023-12-28T02:35:33;13;10;7
34240;PMS7003;20503;50.200;19.508;2023-12-28T02:36:41;15;10;7
34240;PMS7003;20503;50.200;19.508;2023-12-28T02:37:46;15;10;7
34240;PMS7003;20503;50.200;19.508;2023-12-28T02:38:52;12;11;8
34240;PMS7003;20503;50.200;19.508;2023-12-28T02:39:58;12;11;8
34240;PMS7003;20503;50.200;19.508;2023-12-28T02:41:01;12;11;7
34240;PMS7003;20503;50.200;19.508;2023-12-28T02:42:04;12;11;7
34240;PMS7003;20503;50.200;19.508;2023-12-28T02:43:05;13;10;7
34240;PMS7003;20503;50.200;19.508;2023-12-28T02:44:12;16;10;8
34240;PMS7003;20503;50.200;19.508;2023-12-28T02:45:13;20;10;7
34240;PMS7003;20503;50.200;19.508;2023-12-28T02:46:15;13;9;6
34240;PMS7003;20503;50.200;19.508;2023-12-28T02:47:18;14;10;8
34240;PMS7003;20503;50.200;19.508;2023-12-28T02:48:19;14;10;8
34240;PMS7003;20503;50.200;19.508;2023-12-28T02:49:20;16;12;8
34240;PMS7003;20503;50.200;19.508;2023-12-28T02:50:22;15;11;7
34240;PMS7003;20503;50.200;19.508;2023-12-28T02:51:23;15;10;7
34240;PMS7003;20503;50.200;19.508;2023-12-28T02:52:26;15;11;8
34240;PMS7003;20503;50.200;19.508;2023-12-28T02:53:27;17;12;7
34240;PMS7003;20503;50.200;19.508;2023-12-28T02:54:31;17;12;7
34240;PMS7003;20503;50.200;19.508;2023-12-28T02:55:32;18;11;8
34240;PMS7003;20503;50.200;19.508;2023-12-28T02:56:33;18;11;8
34240;PMS7003;20503;50.200;19.508;2023-12-28T02:57:34;14;10;7
34240;PMS7003;20503;50.200;19.508;2023-12-28T02:58:38;14;10;7
34240;PMS7003;20503;50.200;19.508;2023-12-28T02:59:39;14;10;7
34240;PMS7003;20503;50.200;19.508;2023-12-28T03:00:40;16;11;8
34240;PMS7003;20503;50.200;19.508;2023-12-28T03:01:42;16;11;8
34240;PMS7003;20503;50.200;19.508;2023-12-28T03:02:43;15;11;8
34240;PMS7003;20503;50.200;19.508;2023-12-28T03:03:44;15;11;8
34240;PMS7003;20503;50.200;19.508;2023-12-28T03:04:46;20;12;8
34240;PMS7003;20503;50.200;19.508;2023-12-28T03:05:47;20;12;8
34240;PMS7003;20503;50.200;19.508;2023-12-28T03:06:57;10;9;7
34240;PMS7003;20503;50.200;19.508;2023-12-28T03:08:00;10;9;7
34240;PMS7003;20503;50.200;19.508;2023-12-28T03:09:01;15;12;8
34240;PMS7003;20503;50.200;19.508;2023-12-28T03:10:03;15;11;8
34240;PMS7003;20503;50.200;19.508;2023-12-28T03:11:07;15;11;8
34240;PMS7003;20503;50.200;19.508;2023-12-28T03:12:08;18;11;8
34240;PMS7003;20503;50.200;19.508;2023-12-28T03:13:09;18;11;8
34240;PMS7003;20503;50.200;19.508;2023-12-28T03:14:10;18;11;8
34240;PMS7003;20503;50.200;19.508;2023-12-28T03:15:12;18;11;8
34240;PMS7003;20503;50.200;19.508;2023-12-28T03:16:13;14;9;7
34240;PMS7003;20503;50.200;19.508;2023-12-28T03:17:14;14;9;7
34240;PMS7003;20503;50.200;19.508;2023-12-28T03:18:16;15;10;8
34240;PMS7003;20503;50.200;19.508;2023-12-28T03:19:17;15;10;8
34240;PMS7003;20503;50.200;19.508;2023-12-28T03:20:18;17;10;7
34240;PMS7003;20503;50.200;19.508;2023-12-28T03:21:21;18;12;8
34240;PMS7003;20503;50.200;19.508;2023-12-28T03:22:22;18;12;8
34240;PMS7003;20503;50.200;19.508;2023-12-28T03:23:23;17;12;8
34240;PMS7003;20503;50.200;19.508;2023-12-28T03:24:24;17;12;8
34240;PMS7003;20503;50.200;19.508;2023-12-28T03:25:25;17;11;8
34240;PMS7003;20503;50.200;19.508;2023-12-28T03:26:39;20;11;8
34240;PMS7003;20503;50.200;19.508;2023-12-28T03:27:40;17;11;8
34240;PMS7003;20503;50.200;19.508;2023-12-28T03:28:42;17;11;8
34240;PMS7003;20503;50.200;19.508;2023-12-28T03:29:43;16;11;7
34240;PMS7003;20503;50.200;19.508;2023-12-28T03:30:44;16;9;7
34240;PMS7003;20503;50.200;19.508;2023-12-28T03:31:45;16;9;7
34240;PMS7003;20503;50.200;19.508;2023-12-28T03:32:46;17;11;8
34240;PMS7003;20503;50.200;19.508;2023-12-28T03:34:01;14;10;8
34240;PMS7003;20503;50.200;19.508;2023-12-28T03:35:02;18;13;9
34240;PMS7003;20503;50.200;19.508;2023-12-28T03:36:08;18;13;9
34240;PMS7003;20503;50.200;19.508;2023-12-28T03:37:20;15;11;8
34240;PMS7003;20503;50.200;19.508;2023-12-28T03:38:21;15;11;8
34240;PMS7003;20503;50.200;19.508;2023-12-28T03:39:23;17;13;9
34240;PMS7003;20503;50.200;19.508;2023-12-28T03:40:24;15;11;8
34240;PMS7003;20503;50.200;19.508;2023-12-28T03:41:25;15;11;8
34240;PMS7003;20503;50.200;19.508;2023-12-28T03:42:26;17;11;8
34240;PMS7003;20503;50.200;19.508;2023-12-28T03:43:55;16;11;8
34240;PMS7003;20503;50.200;19.508;2023-12-28T03:44:56;14;10;8
34240;PMS7003;20503;50.200;19.508;2023-12-28T03:45:57;14;10;8
34240;PMS7003;20503;50.200;19.508;2023-12-28T03:46:58;18;12;8
34240;PMS7003;20503;50.200;19.508;2023-12-28T03:48:00;18;12;8
34240;PMS7003;20503;50.200;19.508;2023-12-28T03:49:01;18;13;9
34240;PMS7003;20503;50.200;19.508;2023-12-28T03:50:23;16;10;7
34240;PMS7003;20503;50.200;19.508;2023-12-28T03:51:28;16;10;7
34240;PMS7003;20503;50.200;19.508;2023-12-28T03:52:29;16;12;8
34240;PMS7003;20503;50.200;19.508;2023-12-28T03:53:30;16;12;8
34240;PMS7003;20503;50.200;19.508;2023-12-28T03:54:32;18;13;8
34240;PMS7003;20503;50.200;19.508;2023-12-28T03:55:33;15;11;8
34240;PMS7003;20503;50.200;19.508;2023-12-28T03:56:34;16;11;7
34240;PMS7003;20503;50.200;19.508;2023-12-28T03:57:39;20;11;8
34240;PMS7003;20503;50.200;19.508;2023-12-28T03:58:42;16;11;7
34240;PMS7003;20503;50.200;19.508;2023-12-28T03:59:44;16;11;7
34240;PMS7003;20503;50.200;19.508;2023-12-28T04:00:45;15;10;8
34240;PMS7003;20503;50.200;19.508;2023-12-28T04:01:46;17;12;8
34240;PMS7003;20503;50.200;19.508;2023-12-28T04:02:47;19;11;8
34240;PMS7003;20503;50.200;19.508;2023-12-28T04:04:16;14;13;7
34240;PMS7003;20503;50.200;19.508;2023-12-28T04:05:18;13;12;8
34240;PMS7003;20503;50.200;19.508;2023-12-28T04:06:19;14;10;7
34240;PMS7003;20503;50.200;19.508;2023-12-28T04:07:20;14;10;7
34240;PMS7003;20503;50.200;19.508;2023-12-28T04:08:21;14;10;7
34240;PMS7003;20503;50.200;19.508;2023-12-28T04:09:23;14;10;7
34240;PMS7003;20503;50.200;19.508;2023-12-28T04:11:32;15;12;8
34240;PMS7003;20503;50.200;19.508;2023-12-28T04:12:33;16;11;8
34240;PMS7003;20503;50.200;19.508;2023-12-28T04:13:35;16;11;8
34240;PMS7003;20503;50.200;19.508;2023-12-28T04:14:37;15;10;8
34240;PMS7003;20503;50.200;19.508;2023-12-28T04:15:41;16;11;8
34240;PMS7003;20503;50.200;19.508;2023-12-28T04:16:45;16;11;8
34240;PMS7003;20503;50.200;19.508;2023-12-28T04:17:46;15;10;8
34240;PMS7003;20503;50.200;19.508;2023-12-28T04:18:47;15;10;8
34240;PMS7003;20503;50.200;19.508;2023-12-28T04:19:48;19;11;7
34240;PMS7003;20503;50.200;19.508;2023-12-28T04:21:09;18;9;6
34240;PMS7003;20503;50.200;19.508;2023-12-28T04:22:14;18;9;6
34240;PMS7003;20503;50.200;19.508;2023-12-28T04:23:15;15;11;7
34240;PMS7003;20503;50.200;19.508;2023-12-28T04:24:17;15;11;7
34240;PMS7003;20503;50.200;19.508;2023-12-28T04:25:18;14;10;7
34240;PMS7003;20503;50.200;19.508;2023-12-28T04:26:19;18;13;8
34240;PMS7003;20503;50.200;19.508;2023-12-28T04:27:21;18;13;8
34240;PMS7003;20503;50.200;19.508;2023-12-28T04:28:22;15;12;8
34240;PMS7003;20503;50.200;19.508;2023-12-28T04:29:23;15;12;8
34240;PMS7003;20503;50.200;19.508;2023-12-28T04:30:25;22;16;13
34240;PMS7003;20503;50.200;19.508;2023-12-28T04:31:27;22;14;10
34240;PMS7003;20503;50.200;19.508;2023-12-28T04:32:28;22;14;10
34240;PMS7003;20503;50.200;19.508;2023-12-28T04:33:30;19;14;9
34240;PMS7003;20503;50.200;19.508;2023-12-28T04:34:32;19;13;10
34240;PMS7003;20503;50.200;19.508;2023-12-28T04:35:34;21;14;11
34240;PMS7003;20503;50.200;19.508;2023-12-28T04:37:44;25;17;11
34240;PMS7003;20503;50.200;19.508;2023-12-28T04:38:46;25;17;11
34240;PMS7003;20503;50.200;19.508;2023-12-28T04:39:47;27;20;13
34240;PMS7003;20503;50.200;19.508;2023-12-28T04:40:48;27;20;13
34240;PMS7003;20503;50.200;19.508;2023-12-28T04:41:57;27;20;14
34240;PMS7003;20503;50.200;19.508;2023-12-28T04:42:58;27;20;14
34240;PMS7003;20503;50.200;19.508;2023-12-28T04:44:00;30;19;14
34240;PMS7003;20503;50.200;19.508;2023-12-28T04:45:01;32;23;15
34240;PMS7003;20503;50.200;19.508;2023-12-28T04:46:03;32;23;15
34240;PMS7003;20503;50.200;19.508;2023-12-28T04:47:05;30;23;15
34240;PMS7003;20503;50.200;19.508;2023-12-28T04:48:06;30;23;15
34240;PMS7003;20503;50.200;19.508;2023-12-28T04:49:07;36;25;19
34240;PMS7003;20503;50.200;19.508;2023-12-28T04:50:08;36;25;19
34240;PMS7003;20503;50.200;19.508;2023-12-28T04:51:10;35;25;17
34240;PMS7003;20503;50.200;19.508;2023-12-28T04:52:11;35;25;17
34240;PMS7003;20503;50.200;19.508;2023-12-28T04:53:12;33;25;17
34240;PMS7003;20503;50.200;19.508;2023-12-28T04:54:13;31;24;17
34240;PMS7003;20503;50.200;19.508;2023-12-28T04:55:14;31;24;17
34240;PMS7003;20503;50.200;19.508;2023-12-28T04:56:19;34;26;19
34240;PMS7003;20503;50.200;19.508;2023-12-28T04:57:20;39;28;17
34240;PMS7003;20503;50.200;19.508;2023-12-28T04:58:26;36;26;20
34240;PMS7003;20503;50.200;19.508;2023-12-28T04:59:27;36;26;20
34240;PMS7003;20503;50.200;19.508;2023-12-28T05:00:28;39;28;19
34240;PMS7003;20503;50.200;19.508;2023-12-28T05:01:29;31;24;17
34240;PMS7003;20503;50.200;19.508;2023-12-28T05:02:34;31;24;17
34240;PMS7003;20503;50.200;19.508;2023-12-28T05:03:35;36;27;17
34240;PMS7003;20503;50.200;19.508;2023-12-28T05:04:37;36;27;17
34240;PMS7003;20503;50.200;19.508;2023-12-28T05:05:41;37;28;18
34240;PMS7003;20503;50.200;19.508;2023-12-28T05:06:42;35;30;19
34240;PMS7003;20503;50.200;19.508;2023-12-28T05:07:44;35;30;19
34240;PMS7003;20503;50.200;19.508;2023-12-28T05:08:45;43;32;22
34240;PMS7003;20503;50.200;19.508;2023-12-28T05:09:46;43;32;22
34240;PMS7003;20503;50.200;19.508;2023-12-28T05:10:47;40;31;21
34240;PMS7003;20503;50.200;19.508;2023-12-28T05:11:48;41;31;20
34240;PMS7003;20503;50.200;19.508;2023-12-28T05:12:49;41;31;20
34240;PMS7003;20503;50.200;19.508;2023-12-28T05:14:01;45;33;23
34240;PMS7003;20503;50.200;19.508;2023-12-28T05:15:06;45;33;23
34240;PMS7003;20503;50.200;19.508;2023-12-28T05:16:08;40;30;21
34240;PMS7003;20503;50.200;19.508;2023-12-28T05:17:09;40;30;21
34240;PMS7003;20503;50.200;19.508;2023-12-28T05:18:10;36;30;20
34240;PMS7003;20503;50.200;19.508;2023-12-28T05:19:11;44;35;20
34240;PMS7003;20503;50.200;19.508;2023-12-28T05:20:13;44;35;20
34240;PMS7003;20503;50.200;19.508;2023-12-28T05:21:32;51;38;21
34240;PMS7003;20503;50.200;19.508;2023-12-28T05:22:33;51;38;21
34240;PMS7003;20503;50.200;19.508;2023-12-28T05:23:35;48;34;21
34240;PMS7003;20503;50.200;19.508;2023-12-28T05:24:36;47;35;22
34240;PMS7003;20503;50.200;19.508;2023-12-28T05:25:37;47;35;22
34240;PMS7003;20503;50.200;19.508;2023-12-28T05:26:38;44;34;23
34240;PMS7003;20503;50.200;19.508;2023-12-28T05:27:39;44;34;23
34240;PMS7003;20503;50.200;19.508;2023-12-28T05:28:43;51;39;24
34240;PMS7003;20503;50.200;19.508;2023-12-28T05:29:44;66;52;32
34240;PMS7003;20503;50.200;19.508;2023-12-28T05:30:45;63;48;32
34240;PMS7003;20503;50.200;19.508;2023-12-28T05:31:46;60;45;30
34240;PMS7003;20503;50.200;19.508;2023-12-28T05:32:47;60;45;30
34240;PMS7003;20503;50.200;19.508;2023-12-28T05:33:48;59;46;27
34240;PMS7003;20503;50.200;19.508;2023-12-28T05:34:49;59;46;27
34240;PMS7003;20503;50.200;19.508;2023-12-28T05:35:51;57;42;26
34240;PMS7003;20503;50.200;19.508;2023-12-28T05:36:52;50;38;24
34240;PMS7003;20503;50.200;19.508;2023-12-28T05:37:54;50;37;24
34240;PMS7003;20503;50.200;19.508;2023-12-28T05:38:55;53;37;24
34240;PMS7003;20503;50.200;19.508;2023-12-28T05:39:58;50;41;23
34240;PMS7003;20503;50.200;19.508;2023-12-28T05:40:59;51;40;24
34240;PMS7003;20503;50.200;19.508;2023-12-28T05:42:00;51;40;24
34240;PMS7003;20503;50.200;19.508;2023-12-28T05:43:02;58;39;24
34240;PMS7003;20503;50.200;19.508;2023-12-28T05:44:04;58;39;24
34240;PMS7003;20503;50.200;19.508;2023-12-28T05:45:08;53;41;25
34240;PMS7003;20503;50.200;19.508;2023-12-28T05:46:10;52;40;25
34240;PMS7003;20503;50.200;19.508;2023-12-28T05:47:11;52;40;25
34240;PMS7003;20503;50.200;19.508;2023-12-28T05:48:13;55;43;26
34240;PMS7003;20503;50.200;19.508;2023-12-28T05:49:14;55;43;26
34240;PMS7003;20503;50.200;19.508;2023-12-28T05:50:15;56;42;27
34240;PMS7003;20503;50.200;19.508;2023-12-28T05:51:16;53;41;25
34240;PMS7003;20503;50.200;19.508;2023-12-28T05:52:19;52;37;22
34240;PMS7003;20503;50.200;19.508;2023-12-28T05:53:20;42;33;22
34240;PMS7003;20503;50.200;19.508;2023-12-28T05:54:21;42;33;22
34240;PMS7003;20503;50.200;19.508;2023-12-28T05:55:22;44;33;22
34240;PMS7003;20503;50.200;19.508;2023-12-28T05:56:24;42;34;21
34240;PMS7003;20503;50.200;19.508;2023-12-28T05:57:25;45;35;22
34240;PMS7003;20503;50.200;19.508;2023-12-28T05:58:31;42;37;22
34240;PMS7003;20503;50.200;19.508;2023-12-28T05:59:32;51;38;21
34240;PMS7003;20503;50.200;19.508;2023-12-28T06:00:40;51;38;21
34240;PMS7003;20503;50.200;19.508;2023-12-28T06:01:43;46;33;21
34240;PMS7003;20503;50.200;19.508;2023-12-28T06:02:45;46;33;21
34240;PMS7003;20503;50.200;19.508;2023-12-28T06:03:53;51;34;22
34240;PMS7003;20503;50.200;19.508;2023-12-28T06:05:22;52;36;20
34240;PMS7003;20503;50.200;19.508;2023-12-28T06:06:23;47;34;21
34240;PMS7003;20503;50.200;19.508;2023-12-28T06:07:25;47;34;21
34240;PMS7003;20503;50.200;19.508;2023-12-28T06:08:26;44;34;22
34240;PMS7003;20503;50.200;19.508;2023-12-28T06:09:27;43;35;21
34240;PMS7003;20503;50.200;19.508;2023-12-28T06:10:51;39;31;20
34240;PMS7003;20503;50.200;19.508;2023-12-28T06:11:52;44;32;22
34240;PMS7003;20503;50.200;19.508;2023-12-28T06:12:53;44;32;22
34240;PMS7003;20503;50.200;19.508;2023-12-28T06:13:54;40;32;20
34240;PMS7003;20503;50.200;19.508;2023-12-28T06:14:56;40;32;20
34240;PMS7003;20503;50.200;19.508;2023-12-28T06:15:57;41;32;22
34240;PMS7003;20503;50.200;19.508;2023-12-28T06:16:58;48;35;23
34240;PMS7003;20503;50.200;19.508;2023-12-28T06:17:59;48;35;23
34240;PMS7003;20503;50.200;19.508;2023-12-28T06:19:02;48;40;24
34240;PMS7003;20503;50.200;19.508;2023-12-28T06:20:03;48;40;24
34240;PMS7003;20503;50.200;19.508;2023-12-28T06:21:05;46;35;23
34240;PMS7003;20503;50.200;19.508;2023-12-28T06:22:08;46;35;23
34240;PMS7003;20503;50.200;19.508;2023-12-28T06:23:09;43;34;22
34240;PMS7003;20503;50.200;19.508;2023-12-28T06:24:10;43;32;21
34240;PMS7003;20503;50.200;19.508;2023-12-28T06:25:11;43;32;21
34240;PMS7003;20503;50.200;19.508;2023-12-28T06:26:13;43;34;22
34240;PMS7003;20503;50.200;19.508;2023-12-28T06:27:15;43;34;22
34240;PMS7003;20503;50.200;19.508;2023-12-28T06:28:16;48;38;23
34240;PMS7003;20503;50.200;19.508;2023-12-28T06:29:17;44;35;22
34240;PMS7003;20503;50.200;19.508;2023-12-28T06:30:18;44;35;22
34240;PMS7003;20503;50.200;19.508;2023-12-28T06:31:20;42;33;20
34240;PMS7003;20503;50.200;19.508;2023-12-28T06:32:21;42;33;20
34240;PMS7003;20503;50.200;19.508;2023-12-28T06:33:23;47;38;25
34240;PMS7003;20503;50.200;19.508;2023-12-28T06:34:24;52;39;23
34240;PMS7003;20503;50.200;19.508;2023-12-28T06:35:26;52;39;23
34240;PMS7003;20503;50.200;19.508;2023-12-28T06:36:27;43;34;23
34240;PMS7003;20503;50.200;19.508;2023-12-28T06:37:29;42;34;22
34240;PMS7003;20503;50.200;19.508;2023-12-28T06:38:30;43;31;22
34240;PMS7003;20503;50.200;19.508;2023-12-28T06:39:33;43;31;22
34240;PMS7003;20503;50.200;19.508;2023-12-28T06:40:37;46;36;23
34240;PMS7003;20503;50.200;19.508;2023-12-28T06:41:38;49;39;25
34240;PMS7003;20503;50.200;19.508;2023-12-28T06:42:40;49;39;25
34240;PMS7003;20503;50.200;19.508;2023-12-28T06:44:05;62;48;29
34240;PMS7003;20503;50.200;19.508;2023-12-28T06:45:06;61;48;28
34240;PMS7003;20503;50.200;19.508;2023-12-28T06:46:08;60;46;27
34240;PMS7003;20503;50.200;19.508;2023-12-28T06:47:09;60;46;27
34240;PMS7003;20503;50.200;19.508;2023-12-28T06:48:10;50;37;26
34240;PMS7003;20503;50.200;19.508;2023-12-28T06:49:11;50;37;26